Time;durP1;ratioP1;P1;durP2;ratioP2;P2;SDS_P1;SDS_P2;PMS_P1;PMS_P2;Temp;Humidity;BMP_temperature;BMP_pressure;BME280_temperature;BME280_humidity;BME280_pressure;Samples;Min_cycle;Max_cycle;Signal;HPM_P1;HPM_P2
2021/12/11 00:01:15;;;;;;;37.30;19.70;;;0.60;85.00;;;;;;6034536;23;94702;-72
2021/12/11 00:03:59;;;;;;;32.65;19.15;;;0.50;84.90;;;;;;6035801;23;92389;-72
2021/12/11 00:06:36;;;;;;;32.05;18.02;;;0.50;85.10;;;;;;6035623;23;92842;-72
2021/12/11 00:09:28;;;;;;;33.22;19.48;;;0.50;85.00;;;;;;6035787;23;95941;-72
2021/12/11 00:12:08;;;;;;;33.72;20.08;;;0.50;85.20;;;;;;6037111;23;92424;-72
2021/12/11 00:14:42;;;;;;;33.63;19.48;;;0.40;85.30;;;;;;6037144;23;92360;-72
2021/12/11 00:17:11;;;;;;;36.90;19.83;;;0.40;85.40;;;;;;6011270;23;94096;-72
2021/12/11 00:19:39;;;;;;;36.33;20.05;;;0.40;85.40;;;;;;6037131;23;92809;-71
2021/12/11 00:22:13;;;;;;;32.70;20.17;;;0.40;85.40;;;;;;6037005;23;92924;-72
2021/12/11 00:24:41;;;;;;;33.25;18.38;;;0.30;85.30;;;;;;6036926;23;92398;-72
2021/12/11 00:27:18;;;;;;;35.22;19.55;;;0.30;85.10;;;;;;6009613;23;97126;-72
2021/12/11 00:29:45;;;;;;;32.13;18.90;;;0.30;85.00;;;;;;6034728;23;97946;-72
2021/12/11 00:32:31;;;;;;;36.50;20.35;;;0.30;84.80;;;;;;6036996;23;92306;-72
2021/12/11 00:35:06;;;;;;;37.35;20.55;;;0.30;85.10;;;;;;6037124;23;92309;-72
2021/12/11 00:37:34;;;;;;;34.53;19.67;;;0.30;85.20;;;;;;6036558;23;92963;-71
2021/12/11 00:40:15;;;;;;;34.65;18.05;;;0.30;85.40;;;;;;6036042;23;110741;-72
2021/12/11 00:42:51;;;;;;;30.13;19.42;;;0.30;85.10;;;;;;6011060;23;92330;-72
2021/12/11 00:45:29;;;;;;;35.70;19.92;;;0.20;84.90;;;;;;6035919;23;91753;-72
2021/12/11 00:48:00;;;;;;;32.28;18.08;;;0.20;85.10;;;;;;6011105;23;94155;-72
2021/12/11 00:50:38;;;;;;;34.58;19.10;;;0.20;85.00;;;;;;6036852;23;93276;-71
2021/12/11 00:53:16;;;;;;;32.83;18.85;;;0.20;84.70;;;;;;6035667;23;95813;-72
2021/12/11 00:56:05;;;;;;;34.80;19.30;;;0.20;84.60;;;;;;6010687;23;92456;-72
2021/12/11 00:58:35;;;;;;;37.75;20.20;;;0.20;84.50;;;;;;6036376;23;92997;-72
2021/12/11 01:01:17;;;;;;;39.03;20.02;;;0.10;84.40;;;;;;6036693;23;92817;-72
2021/12/11 01:03:46;;;;;;;33.38;20.35;;;0.10;84.40;;;;;;6036488;23;92322;-72
2021/12/11 01:06:27;;;;;;;45.72;21.27;;;0.10;84.40;;;;;;6036921;23;92481;-72
2021/12/11 01:09:00;;;;;;;35.08;20.35;;;0.10;84.60;;;;;;6036453;23;94061;-72
2021/12/11 01:11:41;;;;;;;34.03;20.38;;;0.10;84.80;;;;;;6035569;23;93075;-72
2021/12/11 01:14:26;;;;;;;31.13;18.27;;;0.00;84.60;;;;;;6036784;23;92429;-72
2021/12/11 01:17:03;;;;;;;34.33;18.35;;;0.00;84.30;;;;;;6036683;23;93094;-72
2021/12/11 01:19:36;;;;;;;35.38;18.60;;;0.00;84.10;;;;;;6009882;23;96398;-72
2021/12/11 01:22:21;;;;;;;31.48;17.88;;;0.00;84.10;;;;;;6010577;23;95249;-72
2021/12/11 01:24:52;;;;;;;34.22;19.17;;;0.00;84.50;;;;;;6010506;23;100023;-72
2021/12/11 01:27:23;;;;;;;36.75;20.35;;;0.00;84.70;;;;;;6035399;23;92397;-72
2021/12/11 01:29:56;;;;;;;42.33;20.35;;;-0.10;84.90;;;;;;6036385;23;93288;-72
2021/12/11 01:32:27;;;;;;;35.28;19.25;;;-0.10;85.10;;;;;;6036600;23;92811;-72
2021/12/11 01:34:57;;;;;;;34.75;19.95;;;-0.10;85.20;;;;;;6036593;23;92435;-72
2021/12/11 01:37:24;;;;;;;28.75;18.23;;;0.00;85.20;;;;;;6037138;23;91654;-72
2021/12/11 01:39:52;;;;;;;31.25;17.77;;;0.00;85.70;;;;;;6035360;23;113882;-72
2021/12/11 01:42:26;;;;;;;29.02;18.17;;;0.00;85.00;;;;;;6011224;23;92794;-72
2021/12/11 01:44:57;;;;;;;28.97;17.47;;;0.00;84.80;;;;;;6033527;23;94821;-72
2021/12/11 01:47:33;;;;;;;29.98;17.83;;;-0.10;84.60;;;;;;6036842;23;92377;-72
2021/12/11 01:50:07;;;;;;;28.73;17.25;;;-0.10;84.40;;;;;;6036277;23;95574;-72
2021/12/11 01:52:54;;;;;;;30.08;18.20;;;-0.10;84.00;;;;;;6036681;23;92922;-72
2021/12/11 01:55:31;;;;;;;25.13;15.80;;;-0.10;83.70;;;;;;6021577;23;92554;-72
2021/12/11 01:58:00;;;;;;;30.00;17.48;;;-0.20;84.00;;;;;;6036363;23;93037;-68
2021/12/11 02:00:36;;;;;;;30.65;16.50;;;-0.20;84.50;;;;;;6010718;23;94290;-68
2021/12/11 02:03:08;;;;;;;31.10;17.67;;;-0.20;84.80;;;;;;6011084;23;94150;-68
2021/12/11 02:05:37;;;;;;;31.95;18.65;;;-0.20;84.70;;;;;;6059417;23;92480;-68
2021/12/11 02:08:08;;;;;;;34.53;18.13;;;-0.20;84.90;;;;;;6036761;23;92839;-68
2021/12/11 02:10:43;;;;;;;31.85;17.20;;;-0.20;85.10;;;;;;6035164;23;95272;-68
2021/12/11 02:13:18;;;;;;;28.00;16.13;;;-0.20;85.10;;;;;;6036432;23;95182;-68
2021/12/11 02:15:49;;;;;;;26.58;16.55;;;-0.20;84.80;;;;;;6059085;23;92316;-68
2021/12/11 02:18:23;;;;;;;26.85;16.15;;;-0.20;84.60;;;;;;6036790;23;92316;-68
2021/12/11 02:20:54;;;;;;;;;;;-0.30;84.40;;;;;;6036691;23;93066;-68
2021/12/11 02:23:21;;;;;;;25.27;14.93;;;-0.30;84.30;;;;;;6038622;23;92410;-68
2021/12/11 02:25:51;;;;;;;23.90;14.23;;;-0.30;84.50;;;;;;6036591;23;92467;-68
2021/12/11 02:28:27;;;;;;;26.65;15.77;;;-0.40;84.60;;;;;;6011659;23;91663;-68
2021/12/11 02:31:18;;;;;;;28.27;15.75;;;-0.40;84.60;;;;;;6036160;23;92927;-68
2021/12/11 02:34:06;;;;;;;29.90;15.85;;;-0.30;84.90;;;;;;6035953;23;92670;-68
2021/12/11 02:36:40;;;;;;;30.10;16.67;;;-0.30;85.30;;;;;;6034903;23;94987;-68
2021/12/11 02:39:17;;;;;;;33.08;18.08;;;-0.30;85.30;;;;;;6036346;23;92324;-68
2021/12/11 02:42:03;;;;;;;31.95;17.23;;;-0.30;85.30;;;;;;6034352;23;97965;-68
2021/12/11 02:44:54;;;;;;;34.97;18.08;;;-0.30;85.50;;;;;;6036406;23;92952;-68
2021/12/11 02:47:24;;;;;;;33.03;18.92;;;-0.30;85.50;;;;;;6036306;23;95768;-68
2021/12/11 02:50:09;;;;;;;32.38;17.90;;;-0.30;85.60;;;;;;6036165;23;92452;-68
2021/12/11 02:52:59;;;;;;;33.33;16.70;;;-0.30;85.80;;;;;;6036167;23;96673;-68
2021/12/11 02:55:38;;;;;;;35.67;18.13;;;-0.30;85.90;;;;;;6035530;23;92919;-68
2021/12/11 02:58:29;;;;;;;35.28;17.58;;;-0.30;85.80;;;;;;6034507;23;92413;-68
2021/12/11 03:01:01;;;;;;;34.05;17.77;;;-0.30;85.80;;;;;;6036165;23;92333;-68
2021/12/11 03:03:34;;;;;;;37.03;17.67;;;-0.30;86.00;;;;;;6033143;23;96676;-68
2021/12/11 03:06:15;;;;;;;34.53;18.35;;;-0.30;86.10;;;;;;6035857;23;95228;-68
2021/12/11 03:08:42;;;;;;;34.47;17.88;;;-0.30;86.00;;;;;;6036354;23;92297;-68
2021/12/11 03:11:13;;;;;;;39.95;18.70;;;-0.30;86.00;;;;;;6035836;23;92488;-68
2021/12/11 03:13:44;;;;;;;42.45;20.33;;;-0.30;86.00;;;;;;6036223;23;93018;-68
2021/12/11 03:16:11;;;;;;;45.30;19.17;;;-0.30;86.20;;;;;;6035799;23;92849;-68
2021/12/11 03:18:38;;;;;;;43.72;20.48;;;-0.30;86.40;;;;;;6036138;23;92383;-68
2021/12/11 03:21:05;;;;;;;41.92;19.58;;;-0.30;86.40;;;;;;6036197;23;91732;-68
2021/12/11 03:23:32;;;;;;;41.15;20.00;;;-0.30;86.50;;;;;;6009691;23;105736;-68
2021/12/11 03:25:59;;;;;;;45.30;21.17;;;-0.30;86.40;;;;;;6035742;23;92841;-68
2021/12/11 03:28:27;;;;;;;43.05;20.58;;;-0.30;86.50;;;;;;6034733;23;94856;-68
2021/12/11 03:30:58;;;;;;;39.40;18.90;;;-0.30;86.70;;;;;;6034047;23;92431;-68
2021/12/11 03:33:32;;;;;;;40.00;20.50;;;-0.30;86.90;;;;;;6036056;23;93304;-68
2021/12/11 03:35:59;;;;;;;;;;;-0.30;87.00;;;;;;6036341;23;92908;-68
2021/12/11 03:38:27;;;;;;;42.05;18.45;;;-0.30;87.40;;;;;;6036438;23;92693;-68
2021/12/11 03:40:56;;;;;;;44.60;19.60;;;-0.30;87.30;;;;;;6035765;23;92469;-68
2021/12/11 03:43:25;;;;;;;36.97;17.63;;;-0.30;87.10;;;;;;6035869;23;93056;-68
2021/12/11 03:45:55;;;;;;;35.58;18.63;;;-0.30;86.70;;;;;;6011921;23;92901;-68
2021/12/11 03:48:34;;;;;;;37.03;17.85;;;-0.30;86.20;;;;;;6037379;23;92942;-68
2021/12/11 03:51:04;;;;;;;39.35;19.73;;;-0.30;86.20;;;;;;6037191;23;92880;-68
2021/12/11 03:53:32;;;;;;;39.42;19.58;;;-0.40;86.20;;;;;;6035577;23;95374;-68
2021/12/11 03:56:04;;;;;;;31.75;17.88;;;-0.40;86.40;;;;;;6010466;23;96368;-68
2021/12/11 03:58:31;;;;;;;32.35;17.20;;;-0.40;86.40;;;;;;6037195;23;92321;-68
2021/12/11 04:01:07;;;;;;;36.40;18.30;;;-0.40;86.20;;;;;;6036222;23;103199;-68
2021/12/11 04:03:37;;;;;;;31.33;16.85;;;-0.40;86.00;;;;;;6036977;23;93128;-68
2021/12/11 04:06:08;;;;;;;34.05;17.30;;;-0.40;85.90;;;;;;6034545;23;94345;-69
2021/12/11 04:08:40;;;;;;;41.60;20.67;;;-0.40;85.70;;;;;;6037189;23;92313;-68
2021/12/11 04:11:29;;;;;;;39.55;18.30;;;-0.40;85.90;;;;;;6037242;23;92567;-68
2021/12/11 04:14:03;;;;;;;35.28;18.90;;;-0.50;86.00;;;;;;6036735;23;92994;-68
2021/12/11 04:16:30;;;;;;;;;;;-0.40;86.00;;;;;;6037702;23;92928;-68
2021/12/11 04:18:58;;;;;;;34.47;17.60;;;-0.50;86.20;;;;;;6035904;23;94864;-68
2021/12/11 04:21:25;;;;;;;38.88;19.00;;;-0.50;86.30;;;;;;6037021;23;92380;-68
2021/12/11 04:23:53;;;;;;;46.75;20.38;;;-0.40;86.30;;;;;;6036911;23;93022;-68
2021/12/11 04:26:21;;;;;;;36.75;19.17;;;-0.50;86.30;;;;;;6036611;23;92904;-68
2021/12/11 04:28:49;;;;;;;38.63;20.27;;;-0.50;86.40;;;;;;6037108;23;92791;-72
2021/12/11 04:31:24;;;;;;;34.67;19.65;;;-0.50;86.50;;;;;;6036841;23;92444;-72
2021/12/11 04:33:53;;;;;;;45.67;21.63;;;-0.50;86.60;;;;;;6036944;23;93735;-72
2021/12/11 04:36:25;;;;;;;35.83;18.33;;;-0.50;86.60;;;;;;6011912;23;92857;-72
2021/12/11 04:38:53;;;;;;;41.78;19.35;;;-0.50;86.70;;;;;;6036713;23;96088;-72
2021/12/11 04:41:37;;;;;;;40.38;19.27;;;-0.50;86.90;;;;;;6036742;23;92456;-72
2021/12/11 04:44:08;;;;;;;39.03;19.33;;;-0.40;86.80;;;;;;6034700;23;95506;-72
2021/12/11 04:46:35;;;;;;;38.10;20.33;;;-0.40;86.80;;;;;;6036775;23;95408;-72
2021/12/11 04:49:27;;;;;;;33.03;17.77;;;-0.50;86.80;;;;;;6034249;23;110365;-72
2021/12/11 04:52:03;;;;;;;29.52;16.45;;;-0.40;86.70;;;;;;6035246;23;92462;-72
2021/12/11 04:54:54;;;;;;;33.50;17.77;;;-0.50;86.30;;;;;;6034994;23;94521;-72
2021/12/11 05:03:30;;;;;;;39.03;18.90;;;-0.50;86.00;;;;;;6037368;23;91616;-72
2021/12/11 05:11:17;;;;;;;38.90;20.05;;;-0.60;87.70;;;;;;6035331;23;95171;-72
2021/12/11 05:13:44;;;;;;;48.90;20.67;;;-0.60;87.90;;;;;;6036966;23;92716;-68
2021/12/11 05:16:14;;;;;;;41.55;20.05;;;-0.60;87.60;;;;;;6034896;23;92933;-68
2021/12/11 05:18:44;;;;;;;39.95;20.33;;;-0.50;87.50;;;;;;6036679;23;92820;-69
2021/12/11 05:21:17;;;;;;;43.10;20.52;;;-0.50;87.40;;;;;;6010572;23;92487;-68
2021/12/11 05:23:46;;;;;;;41.17;19.73;;;-0.50;87.40;;;;;;6036908;23;92402;-69
2021/12/11 05:26:13;;;;;;;45.85;19.65;;;-0.50;87.20;;;;;;6035588;23;111101;-68
2021/12/11 05:28:40;;;;;;;37.60;19.65;;;-0.50;87.00;;;;;;6037138;23;92652;-69
2021/12/11 05:31:09;;;;;;;46.17;21.40;;;-0.50;86.80;;;;;;6036571;23;92396;-68
2021/12/11 05:33:37;;;;;;;36.28;19.75;;;-0.50;86.90;;;;;;6035147;23;92481;-69
2021/12/11 05:36:06;;;;;;;38.17;20.55;;;-0.60;86.80;;;;;;6035070;23;95474;-68
2021/12/11 05:38:39;;;;;;;42.03;19.30;;;-0.60;86.50;;;;;;6036366;23;95373;-68
2021/12/11 05:41:09;;;;;;;42.92;19.60;;;-0.60;86.50;;;;;;6036841;23;92723;-69
2021/12/11 05:43:37;;;;;;;39.63;19.42;;;-0.60;86.60;;;;;;6037103;23;92380;-68
2021/12/11 05:46:06;;;;;;;34.92;18.42;;;-0.60;86.60;;;;;;6011331;23;92407;-68
2021/12/11 05:48:33;;;;;;;35.85;18.08;;;-0.60;86.20;;;;;;6034556;23;104361;-68
2021/12/11 05:51:07;;;;;;;32.65;16.45;;;-0.70;85.80;;;;;;6037023;23;92444;-68
2021/12/11 05:53:34;;;;;;;34.10;18.45;;;-0.70;85.90;;;;;;6037358;23;91711;-68
2021/12/11 05:56:11;;;;;;;31.30;16.77;;;-0.70;85.70;;;;;;6036133;23;94618;-68
2021/12/11 05:58:56;;;;;;;34.63;17.80;;;-0.70;85.50;;;;;;6011089;23;92731;-68
2021/12/11 06:01:30;;;;;;;35.00;18.50;;;-0.70;85.40;;;;;;6034869;23;94709;-68
2021/12/11 06:04:08;;;;;;;40.30;18.38;;;-0.70;85.50;;;;;;6035265;23;92497;-68
2021/12/11 06:06:37;;;;;;;39.50;18.85;;;-0.70;85.50;;;;;;6036035;23;93092;-68
2021/12/11 06:09:07;;;;;;;33.45;18.75;;;-0.70;85.70;;;;;;6010567;23;94064;-68
2021/12/11 06:11:35;;;;;;;34.35;18.05;;;-0.70;85.70;;;;;;6010639;23;92403;-69
2021/12/11 06:14:03;;;;;;;31.45;17.48;;;-0.70;85.60;;;;;;6036604;23;92437;-68
2021/12/11 06:16:30;;;;;;;32.92;19.00;;;-0.70;85.60;;;;;;6010963;23;93006;-68
2021/12/11 06:19:03;;;;;;;31.92;16.98;;;-0.70;85.40;;;;;;6034982;23;94008;-68
2021/12/11 06:21:32;;;;;;;34.42;18.23;;;-0.80;85.00;;;;;;6036292;23;92395;-69
2021/12/11 06:24:00;;;;;;;31.65;17.77;;;-0.80;85.00;;;;;;6036715;23;92366;-68
2021/12/11 06:26:27;;;;;;;43.40;20.33;;;-0.80;85.10;;;;;;6034590;23;95493;-68
2021/12/11 06:28:55;;;;;;;33.20;18.17;;;-0.80;85.70;;;;;;6036152;23;97474;-69
2021/12/11 06:31:22;;;;;;;37.33;19.10;;;-0.70;86.00;;;;;;6036113;23;92412;-69
2021/12/11 06:33:52;;;;;;;34.22;18.15;;;-0.70;85.90;;;;;;6036572;23;92436;-68
2021/12/11 06:36:22;;;;;;;34.20;17.98;;;-0.70;85.80;;;;;;6035967;23;95181;-69
2021/12/11 06:38:53;;;;;;;33.05;17.25;;;-0.70;85.60;;;;;;6036232;23;92801;-69
2021/12/11 06:41:25;;;;;;;34.15;17.75;;;-0.70;85.40;;;;;;6036345;23;92424;-68
2021/12/11 06:43:53;;;;;;;32.60;17.45;;;-0.80;85.20;;;;;;6011633;23;91627;-69
2021/12/11 06:46:20;;;;;;;36.85;18.75;;;-0.80;85.10;;;;;;6035990;23;92384;-68
2021/12/11 06:48:47;;;;;;;34.33;17.60;;;-0.80;85.10;;;;;;6010537;23;92732;-68
2021/12/11 06:51:14;;;;;;;33.83;18.77;;;-0.70;85.10;;;;;;6033493;23;94762;-68
2021/12/11 06:53:50;;;;;;;36.85;19.95;;;-0.70;85.20;;;;;;6035643;23;107399;-68
2021/12/11 06:56:19;;;;;;;34.60;19.50;;;-0.70;85.40;;;;;;6010537;23;94174;-68
2021/12/11 06:58:47;;;;;;;37.72;19.40;;;-0.70;86.00;;;;;;6010214;23;93145;-68
2021/12/11 07:01:15;;;;;;;34.65;18.50;;;-0.60;86.40;;;;;;6036395;23;92317;-69
2021/12/11 07:03:42;;;;;;;36.20;19.83;;;-0.60;86.30;;;;;;6010333;23;92397;-68
2021/12/11 07:06:09;;;;;;;38.50;19.20;;;-0.60;86.30;;;;;;6036166;23;93046;-69
2021/12/11 07:08:38;;;;;;;36.88;19.92;;;-0.60;86.40;;;;;;6036331;23;93020;-69
2021/12/11 07:11:11;;;;;;;40.15;20.00;;;-0.50;86.40;;;;;;6036494;23;92328;-68
2021/12/11 07:13:40;;;;;;;38.90;21.20;;;-0.50;86.40;;;;;;6010691;23;92387;-68
2021/12/11 07:16:08;;;;;;;39.90;20.00;;;-0.50;87.00;;;;;;6034451;23;95354;-69
2021/12/11 07:18:36;;;;;;;36.38;19.25;;;-0.40;86.30;;;;;;6034470;23;103198;-68
2021/12/11 07:21:04;;;;;;;35.22;19.05;;;-0.40;86.10;;;;;;6035998;23;92396;-71
2021/12/11 07:23:34;;;;;;;33.90;18.73;;;-0.40;85.70;;;;;;6035845;23;92411;-72
2021/12/11 07:26:12;;;;;;;34.70;19.55;;;-0.40;85.20;;;;;;6036102;23;93058;-70
2021/12/11 07:28:41;;;;;;;34.10;18.15;;;-0.40;84.90;;;;;;6035498;23;97355;-69
2021/12/11 07:31:08;;;;;;;31.52;17.95;;;-0.30;85.60;;;;;;6036229;23;92438;-68
2021/12/11 07:33:35;;;;;;;32.15;17.73;;;-0.30;84.70;;;;;;6036245;23;92141;-69
2021/12/11 07:36:02;;;;;;;32.42;19.17;;;-0.30;84.50;;;;;;6035937;23;92965;-69
2021/12/11 07:38:29;;;;;;;35.55;19.00;;;-0.30;84.70;;;;;;6033946;23;92720;-69
2021/12/11 07:41:00;;;;;;;35.83;19.23;;;-0.30;84.80;;;;;;6034598;23;94679;-69
2021/12/11 07:43:28;;;;;;;36.92;20.50;;;-0.20;84.50;;;;;;6035711;23;92405;-68
2021/12/11 07:45:57;;;;;;;31.42;18.10;;;-0.20;84.30;;;;;;6010122;23;92999;-68
2021/12/11 07:48:25;;;;;;;35.05;19.63;;;-0.30;84.10;;;;;;6035487;23;92769;-68
2021/12/11 07:50:52;;;;;;;38.72;20.05;;;-0.30;84.00;;;;;;6035523;23;98407;-71
2021/12/11 07:53:20;;;;;;;34.22;19.00;;;-0.30;83.90;;;;;;6036036;23;92865;-72
2021/12/11 07:55:48;;;;;;;35.05;19.50;;;-0.30;84.10;;;;;;6035405;23;92935;-72
2021/12/11 07:58:15;;;;;;;37.30;19.95;;;-0.30;84.40;;;;;;6035848;23;92963;-72
2021/12/11 08:00:45;;;;;;;35.20;19.77;;;-0.30;84.80;;;;;;6035562;23;92433;-72
2021/12/11 08:03:14;;;;;;;40.70;21.83;;;-0.30;84.70;;;;;;6035929;23;92483;-72
2021/12/11 08:05:43;;;;;;;36.97;21.33;;;-0.20;84.70;;;;;;6033898;23;95466;-72
2021/12/11 08:08:11;;;;;;;35.20;20.58;;;-0.30;84.50;;;;;;6033574;23;96866;-72
2021/12/11 08:10:41;;;;;;;33.97;20.35;;;-0.20;84.40;;;;;;6010327;23;92480;-72
2021/12/11 08:13:09;;;;;;;37.83;20.80;;;-0.20;84.50;;;;;;6036023;23;92369;-72
2021/12/11 08:15:37;;;;;;;36.83;21.13;;;-0.20;84.70;;;;;;6035319;23;92918;-72
2021/12/11 08:18:08;;;;;;;32.53;20.38;;;-0.20;85.00;;;;;;6009798;23;93953;-72
2021/12/11 08:20:36;;;;;;;35.70;19.67;;;-0.10;84.80;;;;;;6035532;23;92421;-72
2021/12/11 08:23:05;;;;;;;35.03;20.27;;;-0.10;84.50;;;;;;6009586;23;103656;-68
2021/12/11 08:25:34;;;;;;;39.25;21.10;;;-0.10;84.40;;;;;;6009881;23;92937;-68
2021/12/11 08:28:02;;;;;;;43.85;22.58;;;-0.10;84.50;;;;;;6035347;23;92717;-68
2021/12/11 08:30:33;;;;;;;55.15;31.23;;;0.00;84.60;;;;;;6009014;23;94838;-68
2021/12/11 08:33:01;;;;;;;45.92;23.42;;;0.00;84.80;;;;;;6011368;23;92368;-68
2021/12/11 08:35:28;;;;;;;38.95;23.00;;;0.10;84.90;;;;;;6036789;23;92985;-68
2021/12/11 08:37:56;;;;;;;36.60;21.38;;;0.20;85.30;;;;;;6036505;23;94469;-68
2021/12/11 08:40:27;;;;;;;41.95;22.10;;;0.20;85.10;;;;;;6011161;23;92441;-68
2021/12/11 08:42:56;;;;;;;34.45;21.27;;;0.30;84.90;;;;;;6036739;23;92467;-68
2021/12/11 08:45:26;;;;;;;38.95;22.65;;;0.30;84.60;;;;;;6036783;23;102549;-71
2021/12/11 08:47:59;;;;;;;36.63;20.33;;;0.30;84.40;;;;;;6037081;23;92679;-72
2021/12/11 08:50:30;;;;;;;38.05;21.77;;;0.40;84.50;;;;;;6036916;23;92368;-72
2021/12/11 08:52:58;;;;;;;39.50;21.13;;;0.50;84.50;;;;;;6036761;23;92413;-72
2021/12/11 08:55:32;;;;;;;44.53;22.95;;;0.50;84.50;;;;;;6034804;23;95328;-73
2021/12/11 08:58:00;;;;;;;39.50;22.13;;;0.60;84.40;;;;;;6036355;23;100023;-72
2021/12/11 09:00:49;;;;;;;44.63;23.95;;;0.70;84.70;;;;;;6037042;23;92830;-72
2021/12/11 09:03:37;;;;;;;38.47;22.98;;;0.70;85.00;;;;;;6037013;23;92391;-72
2021/12/11 09:06:09;;;;;;;43.65;22.30;;;0.80;84.90;;;;;;6036703;23;92875;-72
2021/12/11 09:08:46;;;;;;;41.45;24.13;;;0.80;85.00;;;;;;6036261;23;98712;-72
2021/12/11 09:11:31;;;;;;;38.22;23.23;;;0.90;85.30;;;;;;6036920;23;92284;-72
2021/12/11 09:14:16;;;;;;;43.15;23.60;;;1.00;85.50;;;;;;6037228;23;91577;-72
2021/12/11 09:16:53;;;;;;;39.55;23.80;;;1.10;85.00;;;;;;6036674;23;92926;-72
2021/12/11 09:19:27;;;;;;;37.33;24.25;;;1.10;84.90;;;;;;6036638;23;92824;-72
2021/12/11 09:22:10;;;;;;;40.08;23.75;;;1.20;84.70;;;;;;6035142;23;94685;-72
2021/12/11 09:24:50;;;;;;;40.70;25.05;;;1.30;84.50;;;;;;6036491;23;92467;-72
2021/12/11 09:27:26;;;;;;;40.92;22.80;;;1.30;84.80;;;;;;6010741;23;94210;-72
2021/12/11 09:29:55;;;;;;;40.97;23.25;;;1.40;84.40;;;;;;6036419;23;92802;-72
2021/12/11 09:32:31;;;;;;;41.70;24.20;;;1.40;84.10;;;;;;6036865;23;92732;-72
2021/12/11 09:35:07;;;;;;;42.65;24.60;;;1.50;84.20;;;;;;6036639;23;92481;-72
2021/12/11 09:37:34;;;;;;;42.00;24.17;;;1.60;84.10;;;;;;6036647;23;93004;-72
2021/12/11 09:40:15;;;;;;;39.78;25.48;;;1.60;84.40;;;;;;6010838;23;94154;-72
2021/12/11 09:42:42;;;;;;;39.05;23.35;;;1.70;84.20;;;;;;6035919;23;92451;-73
2021/12/11 09:45:22;;;;;;;41.55;23.77;;;1.70;84.20;;;;;;6036348;23;92381;-72
2021/12/11 09:47:57;;;;;;;38.60;24.45;;;1.90;84.60;;;;;;6034554;23;95360;-72
2021/12/11 09:50:32;;;;;;;40.63;24.33;;;1.90;84.60;;;;;;6010095;23;96547;-72
2021/12/11 09:52:58;;;;;;;;;;;2.00;84.40;;;;;;6011304;23;92997;-72
2021/12/11 09:55:36;;;;;;;42.70;24.13;;;2.00;84.40;;;;;;6038415;23;92429;-72
2021/12/11 09:58:08;;;;;;;39.25;24.05;;;2.10;84.30;;;;;;6010537;23;94238;-72
2021/12/11 10:00:46;;;;;;;43.60;24.42;;;2.20;84.30;;;;;;6036340;23;96953;-72
2021/12/11 10:03:16;;;;;;;44.75;24.98;;;2.30;84.60;;;;;;6036636;23;92471;-72
2021/12/11 10:05:59;;;;;;;40.42;23.48;;;2.40;84.30;;;;;;6034761;23;91708;-72
2021/12/11 10:08:44;;;;;;;44.30;24.97;;;2.40;84.00;;;;;;6036515;23;93183;-72
2021/12/11 10:11:11;;;;;;;38.58;24.08;;;2.50;83.90;;;;;;6036669;23;92910;-72
2021/12/11 10:13:41;;;;;;;44.70;24.92;;;2.60;84.00;;;;;;6033430;23;94802;-72
2021/12/11 10:16:09;;;;;;;40.05;24.00;;;2.60;84.00;;;;;;6036623;23;92446;-72
2021/12/11 10:18:36;;;;;;;44.80;25.85;;;2.70;84.00;;;;;;6036314;23;92977;-72
2021/12/11 10:21:17;;;;;;;39.70;23.75;;;2.70;83.70;;;;;;6010494;23;92954;-72
2021/12/11 10:23:48;;;;;;;43.00;24.83;;;2.80;83.70;;;;;;6036341;23;92391;-72
2021/12/11 10:26:22;;;;;;;47.05;27.67;;;2.80;84.20;;;;;;6034673;23;92862;-72
2021/12/11 10:28:51;;;;;;;;;;;2.90;84.00;;;;;;6036614;23;93017;-72
2021/12/11 10:31:26;;;;;;;46.20;24.85;;;2.90;83.60;;;;;;6038839;23;92397;-72
2021/12/11 10:33:55;;;;;;;41.30;24.70;;;3.00;84.00;;;;;;6036464;23;92408;-72
2021/12/11 10:36:26;;;;;;;51.38;28.48;;;3.10;83.90;;;;;;6010437;23;92388;-72
2021/12/11 10:38:56;;;;;;;44.40;25.92;;;3.10;84.20;;;;;;6034589;23;95374;-72
2021/12/11 10:41:25;;;;;;;43.22;26.52;;;3.20;83.80;;;;;;6036401;23;95783;-72
2021/12/11 10:44:01;;;;;;;42.15;25.45;;;3.20;83.60;;;;;;6034402;23;92446;-72
2021/12/11 10:46:32;;;;;;;43.55;26.83;;;3.30;83.40;;;;;;6036514;23;92382;-72
2021/12/11 10:49:00;;;;;;;42.50;25.23;;;3.40;83.10;;;;;;6036091;23;93024;-72
2021/12/11 10:51:32;;;;;;;39.85;25.70;;;3.40;83.00;;;;;;6036147;23;99816;-69
2021/12/11 10:54:00;;;;;;;42.80;25.05;;;3.50;83.30;;;;;;6036072;23;92400;-68
2021/12/11 10:56:28;;;;;;;40.17;25.42;;;3.50;82.90;;;;;;6011224;23;91718;-68
2021/12/11 10:59:00;;;;;;;44.50;24.90;;;3.60;82.90;;;;;;6035783;23;92942;-68
2021/12/11 11:01:35;;;;;;;43.97;26.38;;;3.70;83.00;;;;;;6035944;23;93001;-68
2021/12/11 11:04:16;;;;;;;48.05;25.50;;;3.70;82.90;;;;;;6032364;23;94811;-69
2021/12/11 11:06:45;;;;;;;44.22;26.08;;;3.80;83.10;;;;;;6010566;23;92392;-68
2021/12/11 11:09:15;;;;;;;38.47;24.25;;;3.80;82.80;;;;;;6035961;23;92932;-69
2021/12/11 11:11:44;;;;;;;36.95;24.13;;;3.90;82.80;;;;;;6011283;23;93000;-69
2021/12/11 11:14:12;;;;;;;38.53;23.88;;;3.90;82.30;;;;;;6036262;23;92425;-68
2021/12/11 11:16:42;;;;;;;39.85;24.10;;;4.00;82.30;;;;;;6036313;23;92444;-69
2021/12/11 11:19:09;;;;;;;39.50;24.98;;;4.00;82.10;;;;;;6010156;23;94292;-68
2021/12/11 11:21:42;;;;;;;40.38;24.13;;;4.00;82.10;;;;;;6036572;23;92760;-68
2021/12/11 11:24:11;;;;;;;39.75;25.35;;;4.10;82.20;;;;;;6035988;23;92468;-68
2021/12/11 11:26:43;;;;;;;36.38;24.17;;;4.20;82.20;;;;;;6035546;23;108942;-69
2021/12/11 11:29:15;;;;;;;42.25;25.00;;;4.20;82.10;;;;;;6034334;23;95602;-69
2021/12/11 11:31:45;;;;;;;38.15;24.42;;;4.20;82.20;;;;;;6036055;23;95063;-68
2021/12/11 11:34:15;;;;;;;40.65;24.13;;;4.30;82.10;;;;;;6009901;23;92415;-68
2021/12/11 11:36:43;;;;;;;40.00;24.10;;;4.40;82.20;;;;;;6034645;23;92324;-68
2021/12/11 11:39:16;;;;;;;32.40;22.00;;;4.40;82.00;;;;;;6035752;23;93163;-69
2021/12/11 11:41:51;;;;;;;34.47;22.95;;;4.50;81.90;;;;;;6036061;23;93064;-68
2021/12/11 11:44:21;;;;;;;36.70;24.05;;;4.50;81.90;;;;;;6036175;23;92404;-72
2021/12/11 11:46:49;;;;;;;42.53;24.50;;;4.60;82.10;;;;;;6035992;23;91657;-68
2021/12/11 11:49:17;;;;;;;44.05;24.10;;;4.60;82.00;;;;;;6035530;23;92817;-72
2021/12/11 11:51:50;;;;;;;34.15;23.60;;;4.70;81.80;;;;;;6009950;23;94005;-72
2021/12/11 11:54:20;;;;;;;39.27;23.20;;;4.70;81.70;;;;;;6008604;23;94964;-71
2021/12/11 11:56:53;;;;;;;39.85;23.23;;;4.80;81.80;;;;;;6036075;23;92779;-72
2021/12/11 11:59:20;;;;;;;36.15;21.85;;;4.80;81.50;;;;;;6035407;23;93059;-72
2021/12/11 12:02:00;;;;;;;36.70;23.27;;;4.80;81.40;;;;;;6035632;23;92859;-72
2021/12/11 12:04:29;;;;;;;38.65;22.35;;;4.90;81.40;;;;;;6035826;23;92317;-72
2021/12/11 12:07:00;;;;;;;37.58;23.38;;;4.90;81.40;;;;;;6037031;23;92400;-72
2021/12/11 12:09:31;;;;;;;38.47;22.83;;;5.00;81.20;;;;;;6035447;23;93098;-72
2021/12/11 12:12:00;;;;;;;38.58;21.40;;;5.10;81.30;;;;;;6037050;23;92962;-72
2021/12/11 12:14:30;;;;;;;34.45;21.42;;;5.10;81.10;;;;;;6036589;23;101024;-68
2021/12/11 12:16:58;;;;;;;36.05;22.05;;;5.10;80.90;;;;;;6037151;23;92396;-72
2021/12/11 12:19:26;;;;;;;36.88;21.58;;;5.20;80.80;;;;;;6033795;23;95351;-72
2021/12/11 12:21:57;;;;;;;36.35;21.63;;;5.20;80.50;;;;;;6036794;23;95256;-72
2021/12/11 12:24:26;;;;;;;40.55;22.08;;;5.30;80.50;;;;;;6011600;23;92520;-72
2021/12/11 12:26:54;;;;;;;39.78;22.73;;;5.40;80.30;;;;;;6037208;23;92719;-72
2021/12/11 12:29:21;;;;;;;41.00;23.42;;;5.40;80.40;;;;;;6010679;23;95599;-72
2021/12/11 12:31:56;;;;;;;34.20;22.02;;;5.60;80.30;;;;;;6036803;23;92809;-71
2021/12/11 12:34:26;;;;;;;39.28;21.25;;;5.70;79.90;;;;;;6036941;23;92552;-72
2021/12/11 12:36:53;;;;;;;33.75;20.15;;;5.80;79.80;;;;;;6011354;23;91757;-72
2021/12/11 12:39:27;;;;;;;37.70;22.05;;;5.80;79.50;;;;;;6036981;23;93057;-72
2021/12/11 12:42:15;;;;;;;40.13;22.10;;;5.90;79.10;;;;;;6036922;23;92952;-72
2021/12/11 12:44:44;;;;;;;35.55;21.95;;;5.90;78.80;;;;;;6035730;23;95150;-72
2021/12/11 12:47:16;;;;;;;31.23;20.73;;;5.90;78.70;;;;;;6036822;23;92400;-72
2021/12/11 12:49:49;;;;;;;38.80;22.50;;;6.00;79.10;;;;;;6036832;23;93052;-72
2021/12/11 12:52:22;;;;;;;33.17;21.60;;;6.00;78.80;;;;;;6036478;23;92823;-72
2021/12/11 12:54:51;;;;;;;31.13;20.63;;;6.00;78.80;;;;;;6036099;23;92369;-71
2021/12/11 12:57:26;;;;;;;31.65;21.25;;;6.10;78.70;;;;;;6036596;23;92424;-72
2021/12/11 13:00:02;;;;;;;31.77;19.95;;;6.10;78.40;;;;;;6036645;23;94146;-71
2021/12/11 13:02:31;;;;;;;33.72;20.98;;;6.20;78.60;;;;;;6037184;23;93044;-72
2021/12/11 13:05:15;;;;;;;31.98;20.80;;;6.20;78.40;;;;;;6035295;23;93232;-68
2021/12/11 13:07:54;;;;;;;33.30;20.80;;;6.30;78.20;;;;;;6013390;23;92354;-68
2021/12/11 13:10:29;;;;;;;36.17;21.60;;;6.30;78.10;;;;;;6009203;23;96422;-71